Time;durP1;ratioP1;P1;durP2;ratioP2;P2;SDS_P1;SDS_P2;PMS_P1;PMS_P2;Temp;Humidity;BMP_temperature;BMP_pressure;BME280_temperature;BME280_humidity;BME280_pressure;Samples;Min_cycle;Max_cycle;Signal;HPM_P1;HPM_P2
2022/08/02 00:03:34;;;;;;;5.30;2.30;;;;;17.90;101314.00;;;;10446349;28;20735;-77
2022/08/02 00:08:36;;;;;;;6.97;2.53;;;;;17.80;101301.00;;;;10407126;28;20191;-78
2022/08/02 00:13:38;;;;;;;5.18;3.17;;;;;17.80;101291.00;;;;10395978;28;20201;-78
2022/08/02 00:18:40;;;;;;;5.85;2.88;;;;;17.80;101301.00;;;;10429030;28;20198;-77
2022/08/02 00:23:42;;;;;;;6.00;3.05;;;;;17.80;101301.00;;;;10434917;28;20236;-77
2022/08/02 00:29:04;;;;;;;6.75;3.33;;;;;17.70;101305.00;;;;10438016;28;20198;-78
2022/08/02 00:34:06;;;;;;;5.75;2.65;;;;;17.70;101297.00;;;;10453632;28;20618;-78
2022/08/02 00:39:28;;;;;;;4.82;3.05;;;;;17.60;101302.00;;;;10438022;28;20289;-78
2022/08/02 00:44:36;;;;;;;6.60;3.35;;;;;17.60;101297.00;;;;10439407;28;20320;-77
2022/08/02 00:49:38;;;;;;;6.22;2.97;;;;;17.70;101298.00;;;;10443259;28;20714;-78
2022/08/02 00:54:40;;;;;;;5.97;3.20;;;;;17.70;101286.00;;;;10426969;28;20247;-78
2022/08/02 00:59:42;;;;;;;7.53;3.35;;;;;17.70;101286.00;;;;10405653;28;20194;-77
2022/08/02 01:04:44;;;;;;;5.57;3.20;;;;;17.60;101281.00;;;;10437599;28;20749;-78
2022/08/02 01:09:46;;;;;;;5.40;3.35;;;;;17.50;101287.00;;;;10412623;28;20672;-77
2022/08/02 01:14:55;;;;;;;4.05;3.10;;;;;17.60;101287.00;;;;10442562;28;20214;-77
2022/08/02 01:20:22;;;;;;;5.68;3.30;;;;;17.60;101291.00;;;;10453648;28;20186;-77
2022/08/02 01:25:52;;;;;;;3.50;3.15;;;;;17.60;101294.00;;;;10456740;28;20189;-78
2022/08/02 01:31:07;;;;;;;5.15;3.17;;;;;17.60;101292.00;;;;10428348;28;20201;-77
2022/08/02 01:36:11;;;;;;;7.93;2.97;;;;;17.70;101290.00;;;;10417787;28;20201;-78
2022/08/02 01:41:23;;;;;;;5.93;3.13;;;;;17.70;101294.00;;;;10418711;28;20191;-77
2022/08/02 01:46:27;;;;;;;5.53;2.90;;;;;17.70;101289.00;;;;10419789;28;20189;-77
2022/08/02 01:56:55;;;;;;;5.78;3.47;;;;;17.80;101276.00;;;;10447452;28;20707;-77
2022/08/02 02:01:59;;;;;;;6.03;3.47;;;;;17.80;101275.00;;;;10446475;28;20222;-78
2022/08/02 02:07:01;;;;;;;7.30;3.70;;;;;17.80;101270.00;;;;10425871;28;20260;-78
2022/08/02 02:12:05;;;;;;;6.90;3.70;;;;;17.90;101268.00;;;;10456594;28;20242;-77
2022/08/02 02:17:15;;;;;;;4.47;3.83;;;;;17.90;101254.00;;;;10442997;28;20209;-78
2022/08/02 02:22:37;;;;;;;4.30;3.25;;;;;17.90;101250.00;;;;10491973;28;20185;-78
2022/08/02 02:27:48;;;;;;;3.95;3.65;;;;;17.80;101244.00;;;;10422808;28;20186;-78
2022/08/02 02:32:52;;;;;;;5.80;3.70;;;;;17.80;101233.00;;;;10420901;28;20202;-77
2022/08/02 02:37:57;;;;;;;7.20;3.90;;;;;17.80;101233.00;;;;10440452;28;20200;-78
2022/08/02 02:43:00;;;;;;;5.82;3.75;;;;;17.80;101231.00;;;;10438601;28;20184;-78
2022/08/02 02:48:04;;;;;;;4.20;3.25;;;;;17.80;101246.00;;;;10427185;28;20189;-78
2022/08/02 02:53:09;;;;;;;5.80;3.50;;;;;17.70;101247.00;;;;10456461;28;20198;-78
2022/08/02 02:58:11;;;;;;;6.72;3.60;;;;;17.50;101248.00;;;;10412302;28;20194;-78
2022/08/02 03:03:14;;;;;;;8.90;3.72;;;;;17.40;101240.00;;;;10439455;28;20225;-78
2022/08/02 03:08:20;;;;;;;4.60;3.60;;;;;17.40;101246.00;;;;10434120;28;20209;-78
2022/08/02 03:13:23;;;;;;;7.53;3.60;;;;;17.40;101251.00;;;;10457357;28;20193;-78
2022/08/02 03:18:36;;;;;;;4.18;3.78;;;;;17.30;101255.00;;;;10448496;28;20288;-78
2022/08/02 03:23:40;;;;;;;7.00;3.50;;;;;17.20;101244.00;;;;10426878;28;20215;-78
2022/08/02 03:28:43;;;;;;;4.35;3.42;;;;;17.20;101251.00;;;;10446367;28;20224;-78
2022/08/02 03:33:45;;;;;;;4.90;3.13;;;;;17.20;101256.00;;;;10442689;28;20252;-78
2022/08/02 03:38:50;;;;;;;5.47;3.15;;;;;17.20;101251.00;;;;10464694;28;20196;-78
2022/08/02 03:43:53;;;;;;;4.97;3.42;;;;;17.20;101254.00;;;;10458568;28;20189;-78
2022/08/02 03:48:56;;;;;;;4.53;3.67;;;;;17.30;101253.00;;;;10446781;28;20193;-78
2022/08/02 03:53:58;;;;;;;6.78;3.80;;;;;17.40;101251.00;;;;10429074;28;20296;-78
2022/08/02 03:59:10;;;;;;;4.35;3.85;;;;;17.60;101264.00;;;;10455513;28;20206;-78
2022/08/02 04:04:12;;;;;;;5.05;3.65;;;;;17.70;101254.00;;;;10394569;28;20624;-78
2022/08/02 04:09:14;;;;;;;4.77;4.30;;;;;17.90;101238.00;;;;10432994;28;20544;-78
2022/08/02 04:14:16;;;;;;;4.28;3.70;;;;;18.10;101236.00;;;;10419051;28;20224;-78
2022/08/02 04:19:43;;;;;;;5.38;4.00;;;;;18.20;101240.00;;;;10474376;28;20843;-78
2022/08/02 04:24:50;;;;;;;6.93;3.90;;;;;18.30;101232.00;;;;10438322;28;20179;-78
2022/08/02 04:29:53;;;;;;;5.00;3.80;;;;;18.40;101237.00;;;;10438370;28;20255;-78
2022/08/02 04:34:56;;;;;;;5.30;3.75;;;;;18.50;101244.00;;;;10445877;28;20267;-78
2022/08/02 04:40:18;;;;;;;4.13;3.72;;;;;18.50;101238.00;;;;10462021;28;20193;-78
2022/08/02 04:45:21;;;;;;;4.90;4.40;;;;;18.60;101241.00;;;;10447951;28;20237;-78
2022/08/02 04:50:22;;;;;;;5.57;3.97;;;;;18.70;101246.00;;;;10402458;28;20627;-78
2022/08/02 04:55:27;;;;;;;4.88;3.90;;;;;18.70;101250.00;;;;10474965;28;20237;-78
2022/08/02 05:00:31;;;;;;;5.57;4.55;;;;;18.80;101261.00;;;;10455865;28;20221;-78
2022/08/02 05:05:33;;;;;;;5.82;4.38;;;;;19.00;101260.00;;;;10424434;28;20198;-78
2022/08/02 05:10:35;;;;;;;5.10;4.55;;;;;19.20;101264.00;;;;10443830;28;20561;-78
2022/08/02 05:15:37;;;;;;;5.28;4.75;;;;;19.30;101257.00;;;;10462732;28;20293;-78
2022/08/02 05:20:39;;;;;;;9.73;4.47;;;;;19.20;101262.00;;;;10435755;28;20213;-78
2022/08/02 05:25:41;;;;;;;5.78;4.40;;;;;19.20;101274.00;;;;10457873;28;20186;-78
2022/08/02 05:30:43;;;;;;;7.60;4.53;;;;;19.50;101282.00;;;;10452272;28;20674;-78
2022/08/02 05:35:45;;;;;;;5.78;4.28;;;;;19.90;101280.00;;;;10443547;28;20292;-78
2022/08/02 05:40:48;;;;;;;9.63;4.47;;;;;19.80;101285.00;;;;10443608;28;20293;-78
2022/08/02 05:45:55;;;;;;;7.45;4.97;;;;;19.70;101278.00;;;;10433412;28;20228;-78
2022/08/02 05:51:28;;;;;;;10.80;5.40;;;;;19.90;101280.00;;;;10414474;28;20218;-79
2022/08/02 05:56:43;;;;;;;8.82;5.40;;;;;20.70;101276.00;;;;10450086;28;20210;-78
2022/08/02 06:01:47;;;;;;;7.50;5.80;;;;;21.70;101274.00;;;;10441993;28;20275;-78
2022/08/02 06:06:54;;;;;;;9.73;6.32;;;;;22.20;101282.00;;;;10445825;28;20203;-79
2022/08/02 06:11:59;;;;;;;12.13;6.20;;;;;22.70;101286.00;;;;10475336;28;20505;-79
2022/08/02 06:17:04;;;;;;;10.25;5.05;;;;;23.00;101283.00;;;;10424828;28;20237;-79
2022/08/02 06:22:15;;;;;;;6.55;4.88;;;;;23.20;101290.00;;;;10459088;28;20198;-79
2022/08/02 06:27:38;;;;;;;5.97;4.15;;;;;23.40;101276.00;;;;10458804;28;20302;-79
2022/08/02 06:32:41;;;;;;;9.50;3.72;;;;;23.60;101282.00;;;;10438470;28;20227;-78
2022/08/02 06:37:55;;;;;;;4.63;3.30;;;;;24.00;101283.00;;;;10447247;28;20644;-79
2022/08/02 06:43:05;;;;;;;3.83;2.92;;;;;24.40;101275.00;;;;10470483;28;20227;-78
2022/08/02 06:48:08;;;;;;;4.55;2.58;;;;;25.10;101285.00;;;;10478413;28;20199;-79
2022/08/02 06:53:11;;;;;;;2.88;2.30;;;;;25.60;101282.00;;;;10410842;28;20301;-79
2022/08/02 06:58:13;;;;;;;4.55;2.17;;;;;26.00;101282.00;;;;10427622;28;20610;-79
2022/08/02 07:03:16;;;;;;;5.65;2.10;;;;;26.20;101281.00;;;;10415982;28;20614;-80
2022/08/02 07:08:19;;;;;;;5.28;1.77;;;;;26.10;101277.00;;;;10465351;28;20223;-79
2022/08/02 07:13:21;;;;;;;1.92;1.73;;;;;26.10;101285.00;;;;10462825;28;20191;-79
2022/08/02 07:18:23;;;;;;;2.50;1.80;;;;;25.90;101283.00;;;;10424139;28;20197;-79
2022/08/02 07:23:25;;;;;;;1.50;1.40;;;;;26.00;101284.00;;;;10448156;28;20614;-79
2022/08/02 07:28:27;;;;;;;2.15;1.80;;;;;26.30;101291.00;;;;10475422;28;20232;-79
2022/08/02 07:33:30;;;;;;;2.17;1.83;;;;;26.40;101285.00;;;;10460254;28;20603;-80
2022/08/02 07:38:40;;;;;;;2.38;2.08;;;;;26.80;101279.00;;;;10436710;28;20201;-79
2022/08/02 07:43:42;;;;;;;5.07;1.90;;;;;26.90;101276.00;;;;10444002;28;20187;-79
2022/08/02 07:48:46;;;;;;;7.15;2.13;;;;;27.30;101274.00;;;;10443968;28;20209;-79
2022/08/02 07:53:48;;;;;;;3.40;1.92;;;;;27.80;101268.00;;;;10406656;28;20213;-79
2022/08/02 07:59:04;;;;;;;4.30;1.52;;;;;28.10;101280.00;;;;10424968;28;20186;-79
2022/08/02 08:04:06;;;;;;;1.30;1.10;;;;;28.40;101279.00;;;;10423006;28;20222;-79
2022/08/02 08:09:09;;;;;;;5.05;1.60;;;;;28.60;101277.00;;;;10442310;28;20193;-79
2022/08/02 08:14:11;;;;;;;3.10;1.35;;;;;29.10;101275.00;;;;10428492;28;20711;-79
2022/08/02 08:19:17;;;;;;;3.67;1.52;;;;;29.50;101277.00;;;;10443980;28;20633;-79
2022/08/02 08:24:19;;;;;;;3.63;1.38;;;;;29.90;101280.00;;;;10410561;28;20192;-80
2022/08/02 08:29:23;;;;;;;3.10;1.40;;;;;30.10;101273.00;;;;10419750;28;20198;-80
2022/08/02 08:34:29;;;;;;;4.13;1.23;;;;;30.30;101263.00;;;;10432132;28;20213;-79
2022/08/02 08:39:31;;;;;;;3.15;1.45;;;;;30.30;101273.00;;;;10444762;28;20288;-80
2022/08/02 08:44:34;;;;;;;3.13;1.25;;;;;30.60;101275.00;;;;10427629;28;20190;-80
2022/08/02 08:49:44;;;;;;;3.95;1.08;;;;;31.20;101276.00;;;;10419659;28;20288;-80
2022/08/02 08:54:55;;;;;;;2.67;1.00;;;;;31.60;101275.00;;;;10451515;28;20221;-80
2022/08/02 09:00:00;;;;;;;2.42;1.08;;;;;31.60;101262.00;;;;10445223;28;20194;-80
2022/08/02 09:05:02;;;;;;;1.63;1.40;;;;;31.80;101269.00;;;;10460718;28;20244;-80
2022/08/02 09:10:36;;;;;;;1.90;1.20;;;;;32.80;101265.00;;;;10455107;28;20205;-80
2022/08/02 09:15:40;;;;;;;3.03;1.20;;;;;32.70;101264.00;;;;10434626;28;20206;-79
2022/08/02 09:20:57;;;;;;;4.10;1.40;;;;;32.10;101258.00;;;;10436549;28;20221;-77
2022/08/02 09:26:08;;;;;;;4.85;1.55;;;;;32.10;101260.00;;;;10442449;28;20280;-80
2022/08/02 09:31:19;;;;;;;3.20;1.40;;;;;32.60;101249.00;;;;10417004;28;20215;-80
2022/08/02 09:36:21;;;;;;;3.40;1.20;;;;;33.10;101258.00;;;;10457589;28;20251;-80
2022/08/02 09:41:26;;;;;;;5.28;1.38;;;;;33.90;101260.00;;;;10446855;28;20739;-81
2022/08/02 09:46:31;;;;;;;3.10;1.50;;;;;33.90;101263.00;;;;10422356;28;20220;-80
2022/08/02 09:51:35;;;;;;;4.22;1.58;;;;;33.70;101256.00;;;;10421634;28;20220;-80
2022/08/02 09:56:53;;;;;;;5.57;1.33;;;;;33.90;101262.00;;;;10419126;28;20209;-80
2022/08/02 10:01:57;;;;;;;2.80;1.40;;;;;34.20;101256.00;;;;10491847;28;20213;-80
2022/08/02 10:07:21;;;;;;;5.10;1.80;;;;;34.50;101256.00;;;;10445882;28;20194;-81
2022/08/02 10:12:23;;;;;;;4.72;1.52;;;;;34.30;101260.00;;;;10444958;28;20302;-78
2022/08/02 10:17:26;;;;;;;2.78;1.23;;;;;34.50;101251.00;;;;10430735;28;20225;-79
2022/08/02 10:22:28;;;;;;;1.73;1.20;;;;;34.30;101254.00;;;;10425181;28;20260;-80
2022/08/02 10:27:31;;;;;;;2.70;1.38;;;;;33.80;101268.00;;;;10479957;28;20189;-79
2022/08/02 10:32:57;;;;;;;3.97;1.60;;;;;34.20;101247.00;;;;10456013;28;20202;-79
2022/08/02 10:38:02;;;;;;;2.70;1.20;;;;;34.10;101254.00;;;;10425162;28;20201;-79
2022/08/02 10:43:04;;;;;;;2.88;1.33;;;;;33.90;101248.00;;;;10448898;28;20723;-79
2022/08/02 10:48:06;;;;;;;2.70;1.38;;;;;33.10;101244.00;;;;10450919;28;20192;-79
2022/08/02 10:53:25;;;;;;;5.18;1.30;;;;;33.30;101229.00;;;;10442693;28;20197;-79
2022/08/02 10:58:32;;;;;;;2.45;0.90;;;;;33.30;101228.00;;;;10438895;28;20673;-80
2022/08/02 11:03:38;;;;;;;1.40;1.05;;;;;34.00;101226.00;;;;10434684;28;20222;-79
2022/08/02 11:08:41;;;;;;;1.60;1.00;;;;;34.80;101230.00;;;;10443630;28;20186;-79
2022/08/02 11:14:07;;;;;;;2.20;0.98;;;;;34.10;101236.00;;;;10424426;28;20209;-80
2022/08/02 11:19:10;;;;;;;2.22;1.00;;;;;33.60;101229.00;;;;10402037;28;20185;-80
2022/08/02 11:24:27;;;;;;;1.88;1.20;;;;;34.50;101212.00;;;;10442495;28;20232;-80
2022/08/02 11:29:37;;;;;;;2.10;1.02;;;;;35.80;101211.00;;;;10432400;28;20186;-79
2022/08/02 11:34:41;;;;;;;1.33;0.93;;;;;35.90;101209.00;;;;10443739;28;20293;-80
2022/08/02 11:39:51;;;;;;;2.33;1.27;;;;;35.30;101207.00;;;;10447040;28;20197;-80
2022/08/02 11:44:54;;;;;;;3.83;1.00;;;;;35.30;101217.00;;;;10452585;28;20559;-79
2022/08/02 11:50:05;;;;;;;5.13;1.17;;;;;35.90;101206.00;;;;10427160;28;20214;-79
2022/08/02 11:55:08;;;;;;;0.93;0.93;;;;;36.30;101208.00;;;;10438356;28;20206;-79
2022/08/02 12:00:16;;;;;;;2.53;1.33;;;;;36.80;101195.00;;;;10449225;28;20280;-79
2022/08/02 12:05:19;;;;;;;1.77;0.90;;;;;37.00;101200.00;;;;10405204;28;20277;-79
2022/08/02 12:10:31;;;;;;;3.45;1.20;;;;;36.80;101200.00;;;;10424685;28;20577;-79
2022/08/02 12:15:44;;;;;;;1.55;0.80;;;;;37.20;101195.00;;;;10414942;28;20825;-79
2022/08/02 12:20:47;;;;;;;1.33;0.90;;;;;37.30;101184.00;;;;10444030;28;20194;-79
2022/08/02 12:26:06;;;;;;;1.95;1.00;;;;;36.70;101203.00;;;;10429474;28;20233;-79
2022/08/02 12:31:10;;;;;;;1.10;0.80;;;;;35.90;101202.00;;;;10446651;28;20220;-79
2022/08/02 12:36:21;;;;;;;3.20;1.23;;;;;35.50;101203.00;;;;10431034;28;20182;-79
2022/08/02 12:41:24;;;;;;;1.67;1.00;;;;;35.70;101197.00;;;;10440493;28;20206;-79
2022/08/02 12:46:32;;;;;;;2.15;1.08;;;;;35.80;101197.00;;;;10434159;28;20201;-79
2022/08/02 12:51:43;;;;;;;2.10;1.13;;;;;36.30;101188.00;;;;10439623;28;20215;-79
2022/08/02 12:57:12;;;;;;;3.53;1.02;;;;;36.30;101198.00;;;;10436204;28;20306;-79
2022/08/02 13:02:15;;;;;;;3.78;0.93;;;;;36.10;101186.00;;;;10422457;28;20716;-79
2022/08/02 13:07:18;;;;;;;1.15;0.90;;;;;35.60;101164.00;;;;10435288;28;20260;-79
2022/08/02 13:12:20;;;;;;;1.60;0.98;;;;;34.20;101169.00;;;;10451623;28;20197;-80
2022/08/02 13:17:22;;;;;;;3.05;1.08;;;;;34.10;101168.00;;;;10431061;28;20645;-80
2022/08/02 13:22:24;;;;;;;2.15;1.10;;;;;35.20;101164.00;;;;10439029;28;20663;-79
2022/08/02 13:27:30;;;;;;;2.20;0.98;;;;;34.90;101162.00;;;;10438959;28;20210;-80
2022/08/02 13:32:32;;;;;;;2.22;1.02;;;;;35.40;101150.00;;;;10439941;28;20201;-79
2022/08/02 13:37:35;;;;;;;1.80;0.98;;;;;36.60;101156.00;;;;10421491;28;20201;-79
2022/08/02 13:42:41;;;;;;;2.95;1.10;;;;;36.80;101144.00;;;;10403681;28;20194;-79
2022/08/02 13:47:43;;;;;;;1.38;1.00;;;;;37.30;101135.00;;;;10436977;28;20217;-79
2022/08/02 13:53:05;;;;;;;1.75;1.00;;;;;37.50;101132.00;;;;10428601;28;20296;-78
2022/08/02 13:58:08;;;;;;;2.38;1.02;;;;;38.40;101129.00;;;;10414647;28;20197;-78
2022/08/02 14:03:10;;;;;;;3.10;1.10;;;;;38.20;101119.00;;;;10442329;28;20689;-80
2022/08/02 14:08:14;;;;;;;3.15;1.13;;;;;38.40;101129.00;;;;10438084;28;20309;-79
2022/08/02 14:13:18;;;;;;;1.75;1.10;;;;;38.90;101125.00;;;;10435905;28;20201;-78
2022/08/02 14:18:20;;;;;;;3.28;1.00;;;;;39.50;101101.00;;;;10428275;28;20182;-79
2022/08/02 14:23:22;;;;;;;2.47;1.00;;;;;40.20;101107.00;;;;10414588;28;20228;-80
2022/08/02 14:28:44;;;;;;;2.00;1.10;;;;;40.40;101100.00;;;;10442870;28;20201;-80
2022/08/02 14:33:51;;;;;;;1.13;0.88;;;;;39.10;101094.00;;;;10435807;28;20565;-81
2022/08/02 14:38:53;;;;;;;2.90;1.00;;;;;40.20;101095.00;;;;10409819;28;20191;-80
2022/08/02 14:44:03;;;;;;;4.82;1.15;;;;;40.40;101083.00;;;;10430983;28;20249;-80
2022/08/02 14:49:08;;;;;;;3.13;1.00;;;;;40.30;101083.00;;;;10455104;28;20245;-80
2022/08/02 14:54:11;;;;;;;3.20;1.13;;;;;41.10;101078.00;;;;10442461;28;20813;-80
2022/08/02 14:59:15;;;;;;;2.25;1.00;;;;;40.50;101082.00;;;;10434180;28;20185;-80
2022/08/02 15:04:17;;;;;;;2.95;1.00;;;;;41.70;101071.00;;;;10420860;28;20216;-80
2022/08/02 15:09:20;;;;;;;2.90;1.20;;;;;39.20;101076.00;;;;10443160;28;20201;-81
2022/08/02 15:14:22;;;;;;;1.60;0.98;;;;;37.70;101064.00;;;;10429336;28;20664;-80
2022/08/02 15:19:27;;;;;;;4.53;1.13;;;;;37.50;101056.00;;;;10426724;28;20197;-80
2022/08/02 15:24:49;;;;;;;3.08;1.10;;;;;37.70;101067.00;;;;10454375;28;20206;-80
2022/08/02 15:29:58;;;;;;;7.30;1.42;;;;;39.70;101059.00;;;;10430552;28;20193;-80
2022/08/02 15:35:00;;;;;;;3.25;1.00;;;;;36.80;101056.00;;;;10444540;28;20514;-80
2022/08/02 15:40:03;;;;;;;3.47;1.00;;;;;36.30;101057.00;;;;10409127;28;20201;-80
2022/08/02 15:45:05;;;;;;;4.18;0.90;;;;;39.10;101045.00;;;;10441142;28;20205;-80
2022/08/02 15:50:07;;;;;;;8.05;1.23;;;;;39.20;101047.00;;;;10426293;28;20201;-80
2022/08/02 15:55:12;;;;;;;2.00;1.20;;;;;36.90;101057.00;;;;10434240;28;20197;-80
2022/08/02 16:00:14;;;;;;;1.05;0.80;;;;;34.70;101056.00;;;;10443869;28;20202;-80
2022/08/02 16:05:20;;;;;;;2.92;0.88;;;;;33.90;101045.00;;;;10443646;28;20236;-80
2022/08/02 16:10:22;;;;;;;4.78;2.45;;;;;32.70;101045.00;;;;10446072;28;20235;-80
2022/08/02 16:15:25;;;;;;;2.97;1.30;;;;;31.60;101034.00;;;;10466666;28;21961;-80
2022/08/02 16:20:27;;;;;;;4.78;1.15;;;;;31.50;101035.00;;;;10444038;28;20640;-80
2022/08/02 16:25:29;;;;;;;3.35;0.88;;;;;31.40;101018.00;;;;10424472;28;20300;-80
2022/08/02 16:30:31;;;;;;;2.95;0.98;;;;;30.40;101015.00;;;;10417317;28;20614;-80
2022/08/02 16:35:33;;;;;;;3.97;1.50;;;;;30.20;101011.00;;;;10448894;28;20260;-80
2022/08/02 16:40:35;;;;;;;6.28;4.15;;;;;30.00;101012.00;;;;10417922;28;20710;-80
2022/08/02 16:45:37;;;;;;;8.50;4.82;;;;;30.00;101008.00;;;;10425252;28;20213;-80
2022/08/02 16:50:40;;;;;;;4.70;1.20;;;;;29.90;101018.00;;;;10426851;28;20228;-80
2022/08/02 16:55:47;;;;;;;4.72;1.00;;;;;29.70;101008.00;;;;10400347;28;20304;-80
2022/08/02 17:00:53;;;;;;;3.22;1.00;;;;;29.70;101003.00;;;;10405007;28;20225;-80
2022/08/02 17:05:55;;;;;;;6.65;1.13;;;;;29.80;101004.00;;;;10459093;28;20819;-80
2022/08/02 17:10:58;;;;;;;5.30;1.52;;;;;30.00;100997.00;;;;10411478;28;20206;-80
2022/08/02 17:16:05;;;;;;;2.35;1.05;;;;;30.20;101002.00;;;;10423786;28;20202;-81
2022/08/02 17:21:27;;;;;;;6.00;1.38;;;;;30.30;101001.00;;;;10412012;28;20197;-79
2022/08/02 17:26:29;;;;;;;4.03;1.08;;;;;30.10;101006.00;;;;10437370;28;20210;-80
2022/08/02 17:31:31;;;;;;;2.47;1.17;;;;;29.70;101008.00;;;;10465424;28;20281;-80
2022/08/02 17:36:54;;;;;;;6.55;1.55;;;;;29.30;101005.00;;;;10426381;28;20186;-80
2022/08/02 17:41:56;;;;;;;4.28;1.38;;;;;29.00;101008.00;;;;10442404;28;20235;-80
2022/08/02 17:46:59;;;;;;;5.38;1.48;;;;;29.10;101008.00;;;;10408549;28;20633;-80
2022/08/02 17:52:03;;;;;;;3.92;1.25;;;;;29.70;101002.00;;;;10452006;28;20208;-80
2022/08/02 17:57:26;;;;;;;4.00;1.30;;;;;30.00;101009.00;;;;10398976;28;20202;-80
2022/08/02 18:02:48;;;;;;;2.17;0.90;;;;;30.00;101002.00;;;;10412585;28;20225;-80
2022/08/02 18:07:56;;;;;;;2.15;1.13;;;;;29.80;101009.00;;;;10424801;28;20225;-80
2022/08/02 18:13:18;;;;;;;2.85;0.95;;;;;29.50;101006.00;;;;10426792;28;20186;-80
2022/08/02 18:18:20;;;;;;;2.30;1.17;;;;;29.20;101010.00;;;;10456202;28;20258;-80
2022/08/02 18:23:30;;;;;;;2.97;1.40;;;;;28.90;101010.00;;;;10457900;28;20242;-80
2022/08/02 18:28:38;;;;;;;3.83;1.02;;;;;28.70;101006.00;;;;10419497;28;20267;-80
2022/08/02 18:33:42;;;;;;;6.03;1.10;;;;;28.50;101008.00;;;;10436911;28;20716;-80
2022/08/02 18:39:03;;;;;;;2.25;0.90;;;;;28.30;101011.00;;;;10416535;28;20640;-81
2022/08/02 18:44:09;;;;;;;5.30;1.00;;;;;28.20;101011.00;;;;10413423;28;20780;-81
2022/08/02 18:49:16;;;;;;;3.55;1.05;;;;;28.10;101017.00;;;;10422628;28;20696;-80
2022/08/02 18:54:18;;;;;;;2.58;1.10;;;;;27.80;101004.00;;;;10459603;28;20205;-80
2022/08/02 18:59:32;;;;;;;3.88;1.42;;;;;27.60;101010.00;;;;10444018;28;20220;-80
2022/08/02 19:04:42;;;;;;;2.95;1.27;;;;;27.50;101008.00;;;;10441267;28;20316;-79
2022/08/02 19:09:48;;;;;;;4.88;1.13;;;;;27.30;101013.00;;;;10431809;28;20221;-79
2022/08/02 19:14:50;;;;;;;4.05;1.20;;;;;27.20;101009.00;;;;10443741;28;20304;-80
2022/08/02 19:19:53;;;;;;;4.93;1.23;;;;;27.00;101017.00;;;;10421306;28;20653;-79
2022/08/02 19:24:57;;;;;;;5.90;1.10;;;;;26.70;101013.00;;;;10448644;28;20249;-79
2022/08/02 19:30:05;;;;;;;1.13;0.60;;;;;26.50;101020.00;;;;10424124;28;20580;-79
2022/08/02 19:35:11;;;;;;;4.72;1.45;;;;;26.30;101022.00;;;;10449986;28;20224;-79
2022/08/02 19:40:32;;;;;;;3.85;1.05;;;;;26.20;101029.00;;;;10441290;28;20204;-80
2022/08/02 19:45:34;;;;;;;5.53;1.20;;;;;25.90;101029.00;;;;10466143;28;20588;-80
2022/08/02 19:50:56;;;;;;;2.50;1.10;;;;;25.70;101028.00;;;;10435363;28;20206;-80
2022/08/02 19:56:03;;;;;;;2.45;0.98;;;;;25.40;101024.00;;;;10409767;28;20577;-80
2022/08/02 20:01:06;;;;;;;2.45;0.98;;;;;25.30;101027.00;;;;10449679;28;20217;-80
2022/08/02 20:06:16;;;;;;;3.10;1.10;;;;;25.10;101033.00;;;;10419751;28;20995;-80
2022/08/02 20:11:19;;;;;;;5.80;1.27;;;;;25.00;101033.00;;;;10445276;28;20225;-80
2022/08/02 20:16:25;;;;;;;1.42;0.80;;;;;24.90;101034.00;;;;10419951;28;20206;-80
2022/08/02 20:21:29;;;;;;;3.50;1.25;;;;;24.80;101038.00;;;;10420835;28;20197;-80
2022/08/02 20:26:42;;;;;;;4.15;1.27;;;;;24.70;101039.00;;;;10450284;28;20214;-80
2022/08/02 20:31:49;;;;;;;4.50;1.15;;;;;24.50;101045.00;;;;10419717;28;20280;-80
2022/08/02 20:36:52;;;;;;;4.18;1.20;;;;;24.40;101039.00;;;;10404463;28;20213;-80
2022/08/02 20:41:54;;;;;;;3.38;1.02;;;;;24.30;101048.00;;;;10418639;28;20291;-79
2022/08/02 20:47:02;;;;;;;7.68;1.00;;;;;24.20;101051.00;;;;10400776;28;20226;-80
2022/08/02 20:52:05;;;;;;;7.30;1.55;;;;;24.20;101053.00;;;;10431076;28;20202;-80
2022/08/02 20:57:25;;;;;;;2.75;1.00;;;;;24.10;101056.00;;;;10408413;28;20224;-80
2022/08/02 21:02:46;;;;;;;4.93;1.27;;;;;24.10;101059.00;;;;10464594;28;20221;-80
2022/08/02 21:07:48;;;;;;;4.75;1.10;;;;;24.10;101055.00;;;;10424625;28;20260;-80
2022/08/02 21:12:55;;;;;;;3.50;1.10;;;;;24.00;101051.00;;;;10432367;28;20209;-80
2022/08/02 21:17:58;;;;;;;3.58;1.10;;;;;23.80;101055.00;;;;10427569;28;20733;-80
2022/08/02 21:23:17;;;;;;;5.70;1.40;;;;;23.60;101048.00;;;;10405819;28;20201;-80
2022/08/02 21:28:20;;;;;;;2.35;1.50;;;;;23.40;101051.00;;;;10444548;28;20189;-80
2022/08/02 21:33:23;;;;;;;4.22;1.50;;;;;23.30;101052.00;;;;10457233;28;20652;-80
2022/08/02 21:38:27;;;;;;;3.22;1.13;;;;;23.10;101051.00;;;;10433862;28;20309;-80
2022/08/02 21:43:37;;;;;;;3.85;1.35;;;;;22.90;101050.00;;;;10437913;28;20208;-80
2022/08/02 21:48:40;;;;;;;6.43;1.50;;;;;22.70;101065.00;;;;10464266;28;20202;-80
2022/08/02 21:53:42;;;;;;;2.53;1.27;;;;;22.50;101057.00;;;;10413837;28;20233;-80
2022/08/02 21:59:04;;;;;;;3.80;1.70;;;;;22.40;101069.00;;;;10436996;28;20228;-80
2022/08/02 22:04:17;;;;;;;3.80;1.30;;;;;22.20;101066.00;;;;10422178;28;20228;-80
2022/08/02 22:09:22;;;;;;;4.55;1.83;;;;;22.10;101068.00;;;;10425416;28;20209;-80
2022/08/02 22:14:45;;;;;;;7.63;2.03;;;;;22.00;101064.00;;;;10415538;28;20232;-80
2022/08/02 22:19:55;;;;;;;4.57;1.67;;;;;22.00;101063.00;;;;10438366;28;20666;-80
2022/08/02 22:24:57;;;;;;;4.55;1.98;;;;;21.90;101064.00;;;;10427700;28;20255;-80
2022/08/02 22:30:01;;;;;;;6.38;2.25;;;;;21.80;101065.00;;;;10407906;28;20197;-80
2022/08/02 22:35:04;;;;;;;18.75;2.90;;;;;21.70;101066.00;;;;10440973;28;20211;-80
2022/08/02 22:40:12;;;;;;;6.75;1.60;;;;;21.70;101072.00;;;;10427367;28;20217;-80
2022/08/02 22:45:13;;;;;;;2.58;1.40;;;;;21.60;101073.00;;;;10431460;28;20205;-80
2022/08/02 22:50:16;;;;;;;6.57;1.58;;;;;21.50;101070.00;;;;10461714;28;20274;-80
2022/08/02 22:55:18;;;;;;;5.95;1.65;;;;;21.50;101079.00;;;;10446786;28;20201;-80
2022/08/02 23:00:23;;;;;;;3.38;1.35;;;;;21.50;101076.00;;;;10411123;28;20243;-80
2022/08/02 23:05:25;;;;;;;2.88;1.38;;;;;21.40;101076.00;;;;10414498;28;20296;-80
2022/08/02 23:10:27;;;;;;;3.83;1.77;;;;;21.40;101078.00;;;;10452193;28;20798;-80
2022/08/02 23:19:49;;;;;;;3.83;1.10;;;;;21.30;101082.00;;;;10411699;28;20197;-79
2022/08/02 23:20:51;;;;;;;4.70;1.23;;;;;21.20;101087.00;;;;10446457;28;20200;-79
2022/08/02 23:25:53;;;;;;;4.03;1.63;;;;;21.20;101087.00;;;;10422319;28;20201;-80
2022/08/02 23:30:55;;;;;;;3.15;1.15;;;;;21.20;101084.00;;;;10422458;28;20301;-80
2022/08/02 23:35:57;;;;;;;3.10;1.33;;;;;21.10;101088.00;;;;10399651;28;20199;-80
2022/08/02 23:41:02;;;;;;;4.32;1.33;;;;;21.10;101100.00;;;;10425310;28;20221;-80
2022/08/02 23:46:04;;;;;;;3.60;1.40;;;;;21.00;101085.00;;;;10445439;28;20267;-80
2022/08/02 23:51:06;;;;;;;4.72;1.73;;;;;20.90;101088.00;;;;10431560;28;20293;-80
2022/08/02 23:56:08;;;;;;;3.70;1.38;;;;;20.90;101089.00;;;;10427144;28;20651;-80
